createdAt,value
2019-06-27T00:01:05.656Z,18.80
2019-06-27T00:05:29.321Z,18.86
2019-06-27T00:09:53.024Z,18.85
2019-06-27T00:14:16.766Z,18.83
2019-06-27T00:18:40.466Z,18.65
2019-06-27T00:23:05.535Z,18.66
2019-06-27T00:27:29.538Z,18.59
2019-06-27T00:31:53.221Z,18.55
2019-06-27T00:36:16.913Z,18.61
2019-06-27T00:40:40.580Z,18.56
2019-06-27T00:45:05.202Z,18.55
2019-06-27T00:49:28.864Z,18.40
2019-06-27T00:53:52.553Z,18.25
2019-06-27T00:58:16.221Z,18.29
2019-06-27T01:02:39.907Z,18.21
2019-06-27T01:07:03.596Z,18.11
2019-06-27T01:11:27.512Z,17.98
2019-06-27T01:15:51.192Z,18.10
2019-06-27T01:20:16.905Z,18.21
2019-06-27T01:24:40.580Z,18.23
2019-06-27T01:29:05.276Z,18.03
2019-06-27T01:33:28.962Z,17.93
2019-06-27T01:37:52.632Z,18.02
2019-06-27T01:42:17.343Z,18.08
2019-06-27T01:46:41.255Z,17.99
2019-06-27T01:51:04.927Z,17.97
2019-06-27T01:55:28.625Z,17.98
2019-06-27T01:59:52.284Z,17.98
2019-06-27T02:04:15.956Z,18.03
2019-06-27T02:08:39.637Z,17.84
2019-06-27T02:13:03.379Z,17.63
2019-06-27T02:17:27.057Z,17.59
2019-06-27T02:21:50.981Z,17.58
2019-06-27T02:26:14.798Z,17.59
2019-06-27T02:30:40.426Z,17.63
2019-06-27T02:35:05.000Z,17.68
2019-06-27T02:39:28.955Z,17.73
2019-06-27T02:43:52.611Z,17.73
2019-06-27T02:52:46.036Z,17.57
2019-06-27T02:57:09.957Z,17.38
2019-06-27T03:01:33.622Z,17.18
2019-06-27T03:05:57.390Z,17.07
2019-06-27T03:10:21.257Z,17.04
2019-06-27T03:14:44.934Z,17.09
2019-06-27T03:19:12.420Z,17.19
2019-06-27T03:23:36.111Z,17.23
2019-06-27T03:27:59.786Z,17.01
2019-06-27T03:32:23.469Z,17.07
2019-06-27T03:36:47.208Z,17.03
2019-06-27T03:41:11.855Z,16.91
2019-06-27T03:45:35.526Z,16.76
2019-06-27T03:50:00.535Z,16.66
2019-06-27T03:54:24.204Z,16.63
2019-06-27T03:58:47.886Z,16.66
2019-06-27T04:03:11.643Z,16.65
2019-06-27T04:07:35.327Z,16.71
2019-06-27T04:11:59.246Z,16.55
2019-06-27T04:16:23.316Z,16.45
2019-06-27T04:20:46.994Z,16.48
2019-06-27T04:25:19.332Z,16.54
2019-06-27T04:29:43.255Z,16.49
2019-06-27T04:34:07.023Z,16.37
2019-06-27T04:38:30.708Z,16.41
2019-06-27T04:42:54.551Z,16.36
2019-06-27T04:47:18.225Z,16.51
2019-06-27T04:51:44.346Z,16.46
2019-06-27T04:56:09.010Z,16.57
2019-06-27T05:00:32.816Z,16.49
2019-06-27T05:04:56.486Z,16.52
2019-06-27T05:09:20.163Z,16.53
2019-06-27T05:13:43.816Z,16.50
2019-06-27T05:18:07.497Z,16.40
2019-06-27T05:22:31.169Z,16.36
2019-06-27T05:26:55.097Z,16.40
2019-06-27T05:31:18.810Z,16.47
2019-06-27T05:35:42.491Z,16.28
2019-06-27T05:40:06.317Z,16.40
2019-06-27T05:44:30.001Z,16.63
2019-06-27T05:48:53.916Z,16.91
2019-06-27T05:53:17.583Z,17.32
2019-06-27T05:57:41.263Z,17.60
2019-06-27T06:02:05.044Z,17.91
2019-06-27T06:06:28.773Z,18.19
2019-06-27T06:10:52.606Z,18.22
2019-06-27T06:15:16.419Z,18.07
2019-06-27T06:19:41.065Z,18.26
2019-06-27T06:24:04.977Z,18.57
2019-06-27T06:28:28.650Z,18.75
2019-06-27T06:32:52.334Z,18.93
2019-06-27T06:37:16.001Z,19.36
2019-06-27T06:41:39.697Z,19.72
2019-06-27T06:46:03.379Z,20.23
2019-06-27T06:50:27.067Z,20.59
2019-06-27T06:54:50.747Z,20.64
2019-06-27T06:59:14.431Z,20.85
2019-06-27T07:03:38.097Z,21.07
2019-06-27T07:08:01.782Z,21.17
2019-06-27T07:12:25.574Z,21.25
2019-06-27T07:16:49.209Z,21.48
2019-06-27T07:21:13.125Z,21.87
2019-06-27T07:25:36.790Z,21.63
2019-06-27T07:30:00.457Z,21.73
2019-06-27T07:34:24.133Z,22.24
2019-06-27T07:38:47.814Z,22.66
2019-06-27T07:43:11.498Z,22.97
2019-06-27T07:47:35.412Z,23.06
2019-06-27T07:51:59.590Z,23.01
2019-06-27T07:56:23.262Z,22.80
2019-06-27T08:00:46.933Z,22.92
2019-06-27T08:05:12.573Z,23.28
2019-06-27T08:09:36.246Z,23.81
2019-06-27T08:13:59.930Z,23.99
2019-06-27T08:18:23.612Z,24.21
2019-06-27T08:22:47.296Z,24.14
2019-06-27T08:27:12.701Z,24.41
2019-06-27T08:31:50.578Z,24.25
2019-06-27T08:36:01.851Z,24.58
2019-06-27T08:44:54.796Z,24.42
2019-06-27T08:49:18.450Z,24.60
2019-06-27T08:53:42.132Z,24.68
2019-06-27T08:58:05.854Z,24.73
2019-06-27T09:02:30.526Z,25.18
2019-06-27T09:06:54.217Z,25.33
2019-06-27T09:11:19.035Z,25.43
2019-06-27T09:15:43.006Z,25.87
2019-06-27T09:20:07.817Z,25.89
2019-06-27T09:24:31.576Z,25.89
2019-06-27T09:28:55.252Z,26.44
2019-06-27T09:33:18.931Z,26.47
2019-06-27T09:37:42.968Z,26.39
2019-06-27T09:42:06.653Z,26.42
2019-06-27T09:46:30.365Z,26.75
2019-06-27T09:50:54.102Z,26.96
2019-06-27T09:55:18.326Z,27.14
2019-06-27T09:59:42.084Z,26.67
2019-06-27T10:04:05.768Z,27.07
2019-06-27T10:08:29.445Z,27.34
2019-06-27T10:12:53.262Z,27.21
2019-06-27T10:17:16.931Z,27.05
2019-06-27T10:21:40.839Z,26.61
2019-06-27T10:26:04.928Z,26.88
2019-06-27T10:30:28.788Z,26.99
2019-06-27T10:34:53.442Z,26.72
2019-06-27T10:39:17.221Z,26.81
2019-06-27T10:43:41.255Z,26.87
2019-06-27T10:48:04.921Z,27.27
2019-06-27T10:52:28.592Z,27.51
2019-06-27T10:56:52.257Z,27.78
2019-06-27T11:01:16.017Z,28.10
2019-06-27T11:05:40.086Z,27.99
2019-06-27T11:10:09.064Z,28.00
2019-06-27T11:14:32.763Z,27.89
2019-06-27T11:18:56.470Z,28.11
2019-06-27T11:23:20.220Z,27.73
2019-06-27T11:27:43.910Z,28.01
2019-06-27T11:32:07.673Z,28.29
2019-06-27T11:36:31.356Z,28.33
2019-06-27T11:40:55.113Z,27.98
2019-06-27T11:45:19.118Z,28.00
2019-06-27T11:49:42.799Z,27.83
2019-06-27T11:54:06.468Z,28.02
2019-06-27T11:58:30.213Z,28.19
2019-06-27T12:02:55.172Z,28.15
2019-06-27T12:07:18.844Z,28.40
2019-06-27T12:11:42.899Z,28.00
2019-06-27T12:16:07.897Z,27.99
2019-06-27T12:20:31.594Z,27.96
2019-06-27T12:24:55.357Z,28.00
2019-06-27T12:29:19.033Z,28.01
2019-06-27T12:33:42.708Z,28.14
2019-06-27T12:38:06.424Z,28.32
2019-06-27T12:42:32.738Z,28.29
2019-06-27T12:46:55.811Z,28.40
2019-06-27T12:51:19.614Z,28.75
2019-06-27T12:55:43.301Z,28.75
2019-06-27T13:00:09.000Z,28.67
2019-06-27T13:04:32.937Z,28.49
2019-06-27T13:08:56.614Z,28.25
2019-06-27T13:13:20.438Z,28.33
2019-06-27T13:17:44.456Z,28.73
2019-06-27T13:22:08.352Z,28.95
2019-06-27T13:26:36.447Z,29.25
2019-06-27T13:31:00.126Z,29.30
2019-06-27T13:35:24.006Z,29.44
2019-06-27T13:39:47.767Z,28.94
2019-06-27T13:44:11.448Z,29.08
2019-06-27T13:48:35.126Z,29.43
2019-06-27T13:52:58.835Z,29.36
2019-06-27T13:57:22.801Z,29.17
2019-06-27T14:01:46.497Z,28.78
2019-06-27T14:06:10.197Z,28.52
2019-06-27T14:10:33.929Z,28.27
2019-06-27T14:14:59.980Z,27.87
2019-06-27T14:19:23.611Z,27.92
2019-06-27T14:23:47.286Z,27.81
2019-06-27T14:28:11.052Z,28.12
2019-06-27T14:32:34.833Z,27.86
2019-06-27T14:36:58.541Z,27.62
2019-06-27T14:41:22.228Z,28.10
2019-06-27T14:45:45.906Z,27.93
2019-06-27T14:50:10.467Z,27.75
2019-06-27T14:54:34.163Z,27.41
2019-06-27T14:58:57.911Z,27.12
2019-06-27T15:03:21.573Z,27.15
2019-06-27T15:07:45.307Z,26.96
2019-06-27T15:12:08.980Z,26.91
2019-06-27T15:16:32.766Z,26.80
2019-06-27T15:20:56.811Z,26.55
2019-06-27T15:25:22.048Z,26.38
2019-06-27T15:29:45.888Z,26.74
2019-06-27T15:34:10.601Z,26.50
2019-06-27T15:38:34.275Z,26.43
2019-06-27T15:42:57.946Z,26.46
2019-06-27T15:47:21.692Z,26.53
2019-06-27T15:51:45.372Z,26.42
2019-06-27T15:56:09.057Z,26.38
2019-06-27T16:00:32.763Z,26.25
2019-06-27T16:04:56.437Z,26.12
2019-06-27T16:09:20.183Z,26.18
2019-06-27T16:13:44.348Z,26.20
2019-06-27T16:18:08.248Z,25.90
2019-06-27T16:22:32.020Z,25.72
2019-06-27T16:26:57.136Z,25.34
2019-06-27T16:31:20.874Z,25.33
2019-06-27T16:35:44.799Z,25.13
2019-06-27T16:40:09.428Z,24.98
2019-06-27T16:44:34.592Z,25.02
2019-06-27T16:48:58.269Z,24.71
2019-06-27T16:53:21.965Z,24.65
2019-06-27T16:57:45.661Z,24.55
2019-06-27T17:02:09.442Z,24.58
2019-06-27T17:06:42.238Z,24.62
2019-06-27T17:10:58.974Z,24.49
2019-06-27T17:15:22.921Z,24.24
2019-06-27T17:19:46.624Z,24.05
2019-06-27T17:24:10.284Z,23.90
2019-06-27T17:28:35.427Z,24.08
2019-06-27T17:32:59.125Z,24.15
2019-06-27T17:37:22.986Z,23.95
2019-06-27T17:41:46.674Z,23.78
2019-06-27T17:46:10.727Z,23.73
2019-06-27T17:50:34.423Z,23.82
2019-06-27T17:54:58.102Z,23.64
2019-06-27T17:59:21.794Z,23.68
2019-06-27T18:03:45.467Z,23.66
2019-06-27T18:08:09.164Z,23.42
2019-06-27T18:12:32.853Z,23.37
2019-06-27T18:16:56.622Z,23.26
2019-06-27T18:21:20.306Z,23.07
2019-06-27T18:25:45.004Z,22.62
2019-06-27T18:30:09.354Z,22.47
2019-06-27T18:34:33.730Z,22.32
2019-06-27T18:38:57.426Z,22.18
2019-06-27T18:43:21.097Z,21.91
2019-06-27T18:47:45.890Z,21.81
2019-06-27T18:52:09.916Z,21.76
2019-06-27T18:56:33.960Z,21.55
2019-06-27T19:00:57.722Z,21.34
2019-06-27T19:05:22.856Z,21.18
2019-06-27T19:09:46.616Z,21.12
2019-06-27T19:14:11.252Z,20.95
2019-06-27T19:18:44.591Z,20.89
2019-06-27T19:23:25.669Z,20.82
2019-06-27T19:27:49.354Z,20.73
2019-06-27T19:32:13.048Z,20.51
2019-06-27T19:36:36.790Z,20.39
2019-06-27T19:41:00.468Z,20.36
2019-06-27T19:45:25.464Z,19.99
2019-06-27T19:49:49.138Z,19.72
2019-06-27T19:54:12.818Z,19.74
2019-06-27T19:58:36.571Z,19.58
2019-06-27T20:03:02.439Z,19.49
2019-06-27T20:07:26.069Z,19.37
2019-06-27T20:11:50.054Z,19.27
2019-06-27T20:16:13.741Z,18.88
2019-06-27T20:20:37.433Z,18.88
2019-06-27T20:25:01.350Z,18.81
2019-06-27T20:29:25.202Z,18.72
2019-06-27T20:33:48.928Z,18.69
2019-06-27T20:38:12.679Z,18.62
2019-06-27T20:42:36.372Z,18.68
2019-06-27T20:47:00.070Z,18.65
2019-06-27T20:51:23.876Z,18.61
2019-06-27T20:55:47.702Z,18.55
2019-06-27T21:00:11.792Z,18.44
2019-06-27T21:04:35.466Z,18.47
2019-06-27T21:08:59.150Z,18.41
2019-06-27T21:13:22.908Z,18.37
2019-06-27T21:17:46.940Z,18.27
2019-06-27T21:22:10.698Z,18.15
2019-06-27T21:26:34.643Z,18.09
2019-06-27T21:30:58.309Z,18.03
2019-06-27T21:35:22.011Z,17.95
2019-06-27T21:39:45.687Z,17.87
2019-06-27T21:44:10.586Z,17.84
2019-06-27T21:48:34.263Z,17.86
2019-06-27T21:52:58.226Z,17.79
2019-06-27T21:57:22.442Z,17.76
2019-06-27T22:01:46.301Z,17.84
2019-06-27T22:06:10.285Z,17.93
2019-06-27T22:10:34.118Z,17.96
2019-06-27T22:14:57.878Z,17.95
2019-06-27T22:19:21.547Z,17.92
2019-06-27T22:23:45.226Z,17.93
2019-06-27T22:28:08.972Z,17.82
2019-06-27T22:32:33.618Z,17.78
2019-06-27T22:37:04.141Z,17.74
2019-06-27T22:41:45.583Z,17.85
2019-06-27T22:46:27.317Z,17.80
2019-06-27T22:51:10.769Z,17.70
2019-06-27T22:55:35.750Z,17.71
2019-06-27T22:59:59.440Z,17.66
2019-06-27T23:04:23.358Z,17.61
2019-06-27T23:08:47.308Z,17.71
2019-06-27T23:13:11.005Z,17.68
2019-06-27T23:17:35.016Z,17.67
2019-06-27T23:21:58.717Z,17.57
2019-06-27T23:26:22.473Z,17.58
2019-06-27T23:30:47.151Z,17.69
2019-06-27T23:35:11.085Z,17.80
2019-06-27T23:39:34.779Z,17.92
2019-06-27T23:43:58.486Z,17.97
2019-06-27T23:48:22.176Z,17.89
2019-06-27T23:52:45.878Z,17.69
2019-06-27T23:57:09.818Z,17.67
